sensor_id;sensor_type;location;lat;lon;timestamp;pressure;altitude;pressure_sealevel;temperature;humidity
51289;BME280;37372;52.294;5.152;2022-08-18T00:00:00;101416.50;;;19.08;100.00
51289;BME280;37372;52.294;5.152;2022-08-18T00:02:28;101405.59;;;19.06;100.00
51289;BME280;37372;52.294;5.152;2022-08-18T00:04:55;101392.63;;;19.05;100.00
51289;BME280;37372;52.294;5.152;2022-08-18T00:07:23;101392.63;;;19.05;100.00
51289;BME280;37372;52.294;5.152;2022-08-18T00:09:49;101391.97;;;19.01;100.00
51289;BME280;37372;52.294;5.152;2022-08-18T00:12:22;101403.69;;;19.03;100.00
51289;BME280;37372;52.294;5.152;2022-08-18T00:14:48;101395.16;;;19.03;100.00
51289;BME280;37372;52.294;5.152;2022-08-18T00:17:14;101397.53;;;19.05;100.00
51289;BME280;37372;52.294;5.152;2022-08-18T00:19:39;101394.22;;;19.06;100.00
51289;BME280;37372;52.294;5.152;2022-08-18T00:22:05;101389.00;;;19.05;100.00
51289;BME280;37372;52.294;5.152;2022-08-18T00:24:32;101391.06;;;19.04;100.00
51289;BME280;37372;52.294;5.152;2022-08-18T00:26:57;101384.56;;;19.04;100.00
51289;BME280;37372;52.294;5.152;2022-08-18T00:29:23;101380.94;;;19.03;100.00
51289;BME280;37372;52.294;5.152;2022-08-18T00:31:49;101374.91;;;19.01;100.00
51289;BME280;37372;52.294;5.152;2022-08-18T00:34:15;101373.31;;;19.00;100.00
51289;BME280;37372;52.294;5.152;2022-08-18T00:36:40;101385.97;;;18.99;100.00
51289;BME280;37372;52.294;5.152;2022-08-18T00:39:06;101385.63;;;18.97;100.00
51289;BME280;37372;52.294;5.152;2022-08-18T00:41:31;101378.00;;;18.94;100.00
51289;BME280;37372;52.294;5.152;2022-08-18T00:43:57;101384.16;;;18.93;100.00
51289;BME280;37372;52.294;5.152;2022-08-18T00:46:34;101380.53;;;18.92;100.00
51289;BME280;37372;52.294;5.152;2022-08-18T00:49:00;101394.72;;;18.92;100.00
51289;BME280;37372;52.294;5.152;2022-08-18T00:51:37;101381.78;;;18.91;100.00
51289;BME280;37372;52.294;5.152;2022-08-18T00:54:18;101389.19;;;18.89;100.00
51289;BME280;37372;52.294;5.152;2022-08-18T00:56:54;101390.91;;;18.86;100.00
51289;BME280;37372;52.294;5.152;2022-08-18T00:59:41;101384.09;;;18.83;100.00
51289;BME280;37372;52.294;5.152;2022-08-18T01:02:11;101381.69;;;18.82;100.00
51289;BME280;37372;52.294;5.152;2022-08-18T01:04:44;101392.41;;;18.78;100.00
51289;BME280;37372;52.294;5.152;2022-08-18T01:07:17;101393.28;;;18.75;100.00
51289;BME280;37372;52.294;5.152;2022-08-18T01:09:46;101393.75;;;18.73;100.00
51289;BME280;37372;52.294;5.152;2022-08-18T01:12:11;101395.34;;;18.74;100.00
51289;BME280;37372;52.294;5.152;2022-08-18T01:14:37;101400.22;;;18.74;100.00
51289;BME280;37372;52.294;5.152;2022-08-18T01:17:02;101403.50;;;18.72;100.00
51289;BME280;37372;52.294;5.152;2022-08-18T01:19:47;101404.34;;;18.73;100.00
51289;BME280;37372;52.294;5.152;2022-08-18T01:22:38;101408.41;;;18.72;100.00
51289;BME280;37372;52.294;5.152;2022-08-18T01:25:07;101401.16;;;18.71;100.00
51289;BME280;37372;52.294;5.152;2022-08-18T01:27:52;101401.72;;;18.65;100.00
51289;BME280;37372;52.294;5.152;2022-08-18T01:30:21;101398.56;;;18.63;100.00
51289;BME280;37372;52.294;5.152;2022-08-18T01:32:50;101401.53;;;18.60;100.00
51289;BME280;37372;52.294;5.152;2022-08-18T01:35:18;101403.22;;;18.57;100.00
51289;BME280;37372;52.294;5.152;2022-08-18T01:37:45;101397.66;;;18.54;100.00
51289;BME280;37372;52.294;5.152;2022-08-18T01:40:13;101399.38;;;18.51;100.00
51289;BME280;37372;52.294;5.152;2022-08-18T01:42:39;101407.53;;;18.49;100.00
51289;BME280;37372;52.294;5.152;2022-08-18T01:45:08;101399.94;;;18.46;100.00
51289;BME280;37372;52.294;5.152;2022-08-18T01:47:35;101404.03;;;18.45;100.00
51289;BME280;37372;52.294;5.152;2022-08-18T01:50:01;101399.72;;;18.40;100.00
51289;BME280;37372;52.294;5.152;2022-08-18T01:52:27;101399.03;;;18.36;100.00
51289;BME280;37372;52.294;5.152;2022-08-18T01:54:54;101398.25;;;18.36;100.00
51289;BME280;37372;52.294;5.152;2022-08-18T01:57:23;101394.28;;;18.33;100.00
51289;BME280;37372;52.294;5.152;2022-08-18T01:59:48;101400.75;;;18.34;100.00
51289;BME280;37372;52.294;5.152;2022-08-18T02:02:22;101398.38;;;18.32;100.00
51289;BME280;37372;52.294;5.152;2022-08-18T02:04:51;101394.41;;;18.30;100.00
51289;BME280;37372;52.294;5.152;2022-08-18T02:07:17;101400.09;;;18.30;100.00
51289;BME280;37372;52.294;5.152;2022-08-18T02:09:44;101405.78;;;18.30;100.00
51289;BME280;37372;52.294;5.152;2022-08-18T02:12:09;101403.59;;;18.34;100.00
51289;BME280;37372;52.294;5.152;2022-08-18T02:14:36;101406.44;;;18.34;100.00
51289;BME280;37372;52.294;5.152;2022-08-18T02:17:04;101409.28;;;18.34;100.00
51289;BME280;37372;52.294;5.152;2022-08-18T02:19:38;101403.25;;;18.32;100.00
51289;BME280;37372;52.294;5.152;2022-08-18T02:22:05;101401.66;;;18.31;100.00
51289;BME280;37372;52.294;5.152;2022-08-18T02:24:30;101397.25;;;18.30;100.00
51289;BME280;37372;52.294;5.152;2022-08-18T02:26:56;101400.97;;;18.27;100.00
51289;BME280;37372;52.294;5.152;2022-08-18T02:29:22;101413.16;;;18.27;100.00
51289;BME280;37372;52.294;5.152;2022-08-18T02:31:47;101411.69;;;18.22;100.00
51289;BME280;37372;52.294;5.152;2022-08-18T02:34:14;101409.75;;;18.19;100.00
51289;BME280;37372;52.294;5.152;2022-08-18T02:36:40;101412.59;;;18.19;100.00
51289;BME280;37372;52.294;5.152;2022-08-18T02:39:06;101425.53;;;18.20;100.00
51289;BME280;37372;52.294;5.152;2022-08-18T02:41:31;101414.50;;;18.22;100.00
51289;BME280;37372;52.294;5.152;2022-08-18T02:43:57;101413.25;;;18.23;100.00
51289;BME280;37372;52.294;5.152;2022-08-18T02:46:23;101416.09;;;18.23;100.00
51289;BME280;37372;52.294;5.152;2022-08-18T02:48:49;101424.63;;;18.23;100.00
51289;BME280;37372;52.294;5.152;2022-08-18T02:51:16;101428.72;;;18.22;100.00
51289;BME280;37372;52.294;5.152;2022-08-18T02:53:44;101425.53;;;18.20;100.00
51289;BME280;37372;52.294;5.152;2022-08-18T02:56:15;101424.25;;;18.21;100.00
51289;BME280;37372;52.294;5.152;2022-08-18T02:58:57;101435.97;;;18.23;100.00
51289;BME280;37372;52.294;5.152;2022-08-18T03:01:26;101439.28;;;18.22;100.00
51289;BME280;37372;52.294;5.152;2022-08-18T03:03:52;101442.56;;;18.20;100.00
51289;BME280;37372;52.294;5.152;2022-08-18T03:06:18;101446.97;;;18.21;100.00
51289;BME280;37372;52.294;5.152;2022-08-18T03:08:44;101440.06;;;18.22;100.00
51289;BME280;37372;52.294;5.152;2022-08-18T03:11:18;101441.31;;;18.21;100.00
51289;BME280;37372;52.294;5.152;2022-08-18T03:13:44;101436.44;;;18.22;100.00
51289;BME280;37372;52.294;5.152;2022-08-18T03:16:11;101451.44;;;18.22;100.00
51289;BME280;37372;52.294;5.152;2022-08-18T03:18:36;101441.66;;;18.23;100.00
51289;BME280;37372;52.294;5.152;2022-08-18T03:21:06;101445.28;;;18.24;100.00
51289;BME280;37372;52.294;5.152;2022-08-18T03:23:32;101454.63;;;18.25;100.00
51289;BME280;37372;52.294;5.152;2022-08-18T03:25:58;101457.44;;;18.25;100.00
51289;BME280;37372;52.294;5.152;2022-08-18T03:28:23;101461.88;;;18.26;100.00
51289;BME280;37372;52.294;5.152;2022-08-18T03:30:48;101462.66;;;18.26;100.00
51289;BME280;37372;52.294;5.152;2022-08-18T03:33:14;101459.38;;;18.28;100.00
51289;BME280;37372;52.294;5.152;2022-08-18T03:35:39;101446.41;;;18.27;100.00
51289;BME280;37372;52.294;5.152;2022-08-18T03:38:05;101445.63;;;18.26;100.00
51289;BME280;37372;52.294;5.152;2022-08-18T03:40:31;101440.72;;;18.27;100.00
51289;BME280;37372;52.294;5.152;2022-08-18T03:42:56;101449.59;;;18.29;100.00
51289;BME280;37372;52.294;5.152;2022-08-18T03:45:22;101439.84;;;18.30;100.00
51289;BME280;37372;52.294;5.152;2022-08-18T03:47:48;101437.00;;;18.30;100.00
51289;BME280;37372;52.294;5.152;2022-08-18T03:50:16;101438.59;;;18.31;100.00
51289;BME280;37372;52.294;5.152;2022-08-18T03:52:44;101422.81;;;18.30;100.00
51289;BME280;37372;52.294;5.152;2022-08-18T03:55:13;101435.75;;;18.31;100.00
51289;BME280;37372;52.294;5.152;2022-08-18T03:57:41;101432.56;;;18.29;100.00
51289;BME280;37372;52.294;5.152;2022-08-18T04:00:07;101442.22;;;18.31;100.00
51289;BME280;37372;52.294;5.152;2022-08-18T04:02:33;101438.59;;;18.31;100.00
51289;BME280;37372;52.294;5.152;2022-08-18T04:04:59;101448.38;;;18.30;100.00
51289;BME280;37372;52.294;5.152;2022-08-18T04:07:24;101448.38;;;18.30;100.00
51289;BME280;37372;52.294;5.152;2022-08-18T04:09:50;101451.22;;;18.30;100.00
51289;BME280;37372;52.294;5.152;2022-08-18T04:12:15;101447.53;;;18.29;100.00
51289;BME280;37372;52.294;5.152;2022-08-18T04:14:42;101447.44;;;18.33;100.00
51289;BME280;37372;52.294;5.152;2022-08-18T04:17:11;101448.69;;;18.32;100.00
51289;BME280;37372;52.294;5.152;2022-08-18T04:19:36;101447.91;;;18.31;100.00
51289;BME280;37372;52.294;5.152;2022-08-18T04:22:02;101445.53;;;18.30;100.00
51289;BME280;37372;52.294;5.152;2022-08-18T04:24:30;101445.53;;;18.30;100.00
51289;BME280;37372;52.294;5.152;2022-08-18T04:26:57;101448.03;;;18.28;100.00
51289;BME280;37372;52.294;5.152;2022-08-18T04:29:23;101442.34;;;18.28;100.00
51289;BME280;37372;52.294;5.152;2022-08-18T04:31:49;101442.78;;;18.26;100.00
51289;BME280;37372;52.294;5.152;2022-08-18T04:34:17;101437.56;;;18.25;100.00
51289;BME280;37372;52.294;5.152;2022-08-18T04:36:44;101447.31;;;18.23;100.00
51289;BME280;37372;52.294;5.152;2022-08-18T04:39:11;101445.75;;;18.22;100.00
51289;BME280;37372;52.294;5.152;2022-08-18T04:41:39;101447.44;;;18.20;100.00
51289;BME280;37372;52.294;5.152;2022-08-18T04:44:06;101439.38;;;18.18;100.00
51289;BME280;37372;52.294;5.152;2022-08-18T04:46:38;101449.16;;;18.17;100.00
51289;BME280;37372;52.294;5.152;2022-08-18T04:49:04;101443.47;;;18.17;100.00
51289;BME280;37372;52.294;5.152;2022-08-18T04:51:31;101437.81;;;18.17;100.00
51289;BME280;37372;52.294;5.152;2022-08-18T04:53:57;101443.47;;;18.17;100.00
51289;BME280;37372;52.294;5.152;2022-08-18T04:56:31;101447.53;;;18.16;100.00
51289;BME280;37372;52.294;5.152;2022-08-18T04:59:04;101441.88;;;18.16;100.00
51289;BME280;37372;52.294;5.152;2022-08-18T05:01:34;101451.66;;;18.15;100.00
51289;BME280;37372;52.294;5.152;2022-08-18T05:04:00;101443.91;;;18.16;100.00
51289;BME280;37372;52.294;5.152;2022-08-18T05:06:27;101444.72;;;18.16;100.00
51289;BME280;37372;52.294;5.152;2022-08-18T05:08:58;101450.28;;;18.20;100.00
51289;BME280;37372;52.294;5.152;2022-08-18T05:11:27;101449.81;;;18.21;100.00
51289;BME280;37372;52.294;5.152;2022-08-18T05:13:55;101449.72;;;18.25;100.00
51289;BME280;37372;52.294;5.152;2022-08-18T05:16:21;101449.59;;;18.29;100.00
51289;BME280;37372;52.294;5.152;2022-08-18T05:18:46;101445.06;;;18.31;100.00
51289;BME280;37372;52.294;5.152;2022-08-18T05:21:13;101449.38;;;18.36;100.00
51289;BME280;37372;52.294;5.152;2022-08-18T05:23:44;101440.28;;;18.41;100.00
51289;BME280;37372;52.294;5.152;2022-08-18T05:26:11;101445.88;;;18.44;100.00
51289;BME280;37372;52.294;5.152;2022-08-18T05:28:39;101445.72;;;18.48;100.00
51289;BME280;37372;52.294;5.152;2022-08-18T05:31:09;101443.59;;;18.52;100.00
51289;BME280;37372;52.294;5.152;2022-08-18T05:33:36;101444.72;;;18.55;100.00
51289;BME280;37372;52.294;5.152;2022-08-18T05:36:05;101447.88;;;18.57;100.00
51289;BME280;37372;52.294;5.152;2022-08-18T05:38:46;101447.78;;;18.60;100.00
51289;BME280;37372;52.294;5.152;2022-08-18T05:41:36;101451.75;;;18.63;100.00
51289;BME280;37372;52.294;5.152;2022-08-18T05:44:03;101462.97;;;18.66;100.00
51289;BME280;37372;52.294;5.152;2022-08-18T05:49:17;101457.84;;;18.74;100.00
51289;BME280;37372;52.294;5.152;2022-08-18T05:51:52;101460.63;;;18.78;100.00
51289;BME280;37372;52.294;5.152;2022-08-18T05:54:19;101454.34;;;18.83;100.00
51289;BME280;37372;52.294;5.152;2022-08-18T05:57:08;101452.84;;;18.91;100.00
51289;BME280;37372;52.294;5.152;2022-08-18T05:59:38;101451.00;;;18.97;100.00
51289;BME280;37372;52.294;5.152;2022-08-18T06:05:04;101452.88;;;19.13;100.00
51289;BME280;37372;52.294;5.152;2022-08-18T06:08:13;101448.41;;;19.25;100.00
51289;BME280;37372;52.294;5.152;2022-08-18T06:10:20;101440.28;;;19.36;100.00
51289;BME280;37372;52.294;5.152;2022-08-18T06:12:48;101436.25;;;19.46;100.00
51289;BME280;37372;52.294;5.152;2022-08-18T06:15:22;101441.34;;;19.51;100.00
51289;BME280;37372;52.294;5.152;2022-08-18T06:24:05;101439.34;;;19.61;100.00
51289;BME280;37372;52.294;5.152;2022-08-18T06:37:33;101446.75;;;19.59;100.00
51289;BME280;37372;52.294;5.152;2022-08-18T06:39:58;101444.56;;;19.63;100.00
51289;BME280;37372;52.294;5.152;2022-08-18T06:42:25;101435.09;;;19.66;100.00
51289;BME280;37372;52.294;5.152;2022-08-18T06:45:06;101446.50;;;19.66;100.00
51289;BME280;37372;52.294;5.152;2022-08-18T06:50:25;101455.13;;;19.75;100.00
51289;BME280;37372;52.294;5.152;2022-08-18T06:55:41;101454.84;;;19.82;100.00
51289;BME280;37372;52.294;5.152;2022-08-18T07:00:53;101466.56;;;19.84;100.00
51289;BME280;37372;52.294;5.152;2022-08-18T07:03:22;101471.94;;;19.82;100.00
51289;BME280;37372;52.294;5.152;2022-08-18T07:08:31;101465.66;;;19.87;100.00
51289;BME280;37372;52.294;5.152;2022-08-18T07:13:38;101472.31;;;19.93;100.00
51289;BME280;37372;52.294;5.152;2022-08-18T07:19:04;101470.13;;;19.98;100.00
51289;BME280;37372;52.294;5.152;2022-08-18T07:21:32;101473.63;;;20.02;100.00
51289;BME280;37372;52.294;5.152;2022-08-18T07:24:20;101473.63;;;20.02;100.00
51289;BME280;37372;52.294;5.152;2022-08-18T07:29:22;101483.00;;;20.11;100.00
51289;BME280;37372;52.294;5.152;2022-08-18T07:31:50;101481.94;;;20.18;100.00
51289;BME280;37372;52.294;5.152;2022-08-18T07:34:27;101491.72;;;20.17;100.00
51289;BME280;37372;52.294;5.152;2022-08-18T07:37:08;101490.31;;;20.12;100.00
51289;BME280;37372;52.294;5.152;2022-08-18T07:39:45;101485.56;;;20.19;100.00
51289;BME280;37372;52.294;5.152;2022-08-18T07:42:18;101486.53;;;20.25;100.00
51289;BME280;37372;52.294;5.152;2022-08-18T07:47:37;101506.28;;;20.50;100.00
51289;BME280;37372;52.294;5.152;2022-08-18T07:50:06;101513.78;;;20.57;100.00
51289;BME280;37372;52.294;5.152;2022-08-18T07:52:37;101516.34;;;20.64;100.00
51289;BME280;37372;52.294;5.152;2022-08-18T08:03:33;101509.88;;;20.73;100.00
51289;BME280;37372;52.294;5.152;2022-08-18T08:06:08;101513.50;;;20.73;100.00
51289;BME280;37372;52.294;5.152;2022-08-18T08:08:43;101511.31;;;20.77;100.00
51289;BME280;37372;52.294;5.152;2022-08-18T08:12:03;101520.69;;;20.87;100.00
51289;BME280;37372;52.294;5.152;2022-08-18T08:17:16;101519.00;;;21.08;100.00
51289;BME280;37372;52.294;5.152;2022-08-18T08:20:13;101514.25;;;21.05;99.38
51289;BME280;37372;52.294;5.152;2022-08-18T08:28:03;101519.66;;;21.12;98.26
51289;BME280;37372;52.294;5.152;2022-08-18T08:30:37;101523.75;;;21.11;97.79
51289;BME280;37372;52.294;5.152;2022-08-18T08:33:25;101511.25;;;21.18;97.48
51289;BME280;37372;52.294;5.152;2022-08-18T08:36:03;101512.03;;;21.18;96.11
51289;BME280;37372;52.294;5.152;2022-08-18T08:38:39;101516.78;;;21.12;96.24
51289;BME280;37372;52.294;5.152;2022-08-18T08:41:14;101507.75;;;21.05;97.25
51289;BME280;37372;52.294;5.152;2022-08-18T08:43:53;101513.75;;;20.97;97.67
51289;BME280;37372;52.294;5.152;2022-08-18T08:46:27;101507.88;;;21.01;98.49
51289;BME280;37372;52.294;5.152;2022-08-18T08:49:00;101500.44;;;21.03;98.11
51289;BME280;37372;52.294;5.152;2022-08-18T08:51:42;101502.53;;;21.12;98.07
51289;BME280;37372;52.294;5.152;2022-08-18T08:54:41;101502.72;;;21.27;96.44
51289;BME280;37372;52.294;5.152;2022-08-18T08:57:09;101509.41;;;21.42;95.42
51289;BME280;37372;52.294;5.152;2022-08-18T08:59:37;101507.66;;;21.45;94.15
51289;BME280;37372;52.294;5.152;2022-08-18T09:04:58;101507.59;;;21.27;94.26
51289;BME280;37372;52.294;5.152;2022-08-18T09:07:54;101517.13;;;21.14;94.91
51289;BME280;37372;52.294;5.152;2022-08-18T09:11:02;101508.53;;;21.05;96.15
51289;BME280;37372;52.294;5.152;2022-08-18T09:16:48;101517.34;;;20.89;97.42
51289;BME280;37372;52.294;5.152;2022-08-18T09:22:18;101518.84;;;21.12;96.83
51289;BME280;37372;52.294;5.152;2022-08-18T09:24:51;101521.22;;;21.32;96.51
51289;BME280;37372;52.294;5.152;2022-08-18T09:30:07;101517.78;;;21.64;94.60
51289;BME280;37372;52.294;5.152;2022-08-18T09:32:51;101516.50;;;21.75;93.98
51289;BME280;37372;52.294;5.152;2022-08-18T09:35:33;101526.34;;;21.74;91.73
51289;BME280;37372;52.294;5.152;2022-08-18T09:40:56;101525.34;;;22.04;91.71
51289;BME280;37372;52.294;5.152;2022-08-18T09:43:57;101522.47;;;22.23;90.07
51289;BME280;37372;52.294;5.152;2022-08-18T09:54:51;101521.75;;;22.46;87.07
51289;BME280;37372;52.294;5.152;2022-08-18T09:57:22;101525.44;;;22.38;86.48
51289;BME280;37372;52.294;5.152;2022-08-18T09:59:51;101521.66;;;22.31;87.03
51289;BME280;37372;52.294;5.152;2022-08-18T10:08:54;101521.19;;;22.05;87.45
51289;BME280;37372;52.294;5.152;2022-08-18T10:10:52;101516.00;;;21.95;86.88
51289;BME280;37372;52.294;5.152;2022-08-18T10:15:47;101502.03;;;22.06;86.42
51289;BME280;37372;52.294;5.152;2022-08-18T10:21:09;101490.69;;;22.30;86.69
51289;BME280;37372;52.294;5.152;2022-08-18T10:23:46;101497.03;;;22.34;86.81
51289;BME280;37372;52.294;5.152;2022-08-18T10:29:05;101499.75;;;22.28;85.88
51289;BME280;37372;52.294;5.152;2022-08-18T10:34:37;101499.41;;;22.36;85.63
51289;BME280;37372;52.294;5.152;2022-08-18T10:37:24;101499.59;;;22.32;85.21
51289;BME280;37372;52.294;5.152;2022-08-18T10:39:59;101510.22;;;22.31;85.42
51289;BME280;37372;52.294;5.152;2022-08-18T10:42:32;101518.94;;;22.28;85.36
51289;BME280;37372;52.294;5.152;2022-08-18T10:47:36;101507.53;;;22.28;82.86
51289;BME280;37372;52.294;5.152;2022-08-18T10:50:07;101508.25;;;22.47;83.07
51289;BME280;37372;52.294;5.152;2022-08-18T10:55:48;101511.84;;;22.57;83.56
51289;BME280;37372;52.294;5.152;2022-08-18T11:04:02;101505.88;;;22.45;84.90
51289;BME280;37372;52.294;5.152;2022-08-18T11:06:37;101508.09;;;22.41;85.67
51289;BME280;37372;52.294;5.152;2022-08-18T11:09:04;101508.41;;;22.43;85.94
51289;BME280;37372;52.294;5.152;2022-08-18T11:11:39;101514.25;;;22.49;85.01
51289;BME280;37372;52.294;5.152;2022-08-18T11:14:20;101494.03;;;22.62;85.14
51289;BME280;37372;52.294;5.152;2022-08-18T11:17:34;101501.59;;;22.74;84.27
51289;BME280;37372;52.294;5.152;2022-08-18T11:20:05;101503.44;;;22.86;84.00
51289;BME280;37372;52.294;5.152;2022-08-18T11:22:34;101498.00;;;22.98;83.74
51289;BME280;37372;52.294;5.152;2022-08-18T11:25:00;101503.97;;;23.09;82.64
51289;BME280;37372;52.294;5.152;2022-08-18T11:27:28;101504.38;;;23.16;81.90
51289;BME280;37372;52.294;5.152;2022-08-18T11:29:58;101502.88;;;23.06;80.95
51289;BME280;37372;52.294;5.152;2022-08-18T11:32:31;101502.19;;;23.11;81.28
51289;BME280;37372;52.294;5.152;2022-08-18T11:39:53;101497.88;;;23.16;82.15
51289;BME280;37372;52.294;5.152;2022-08-18T11:42:27;101501.41;;;23.11;81.95
51289;BME280;37372;52.294;5.152;2022-08-18T11:44:54;101500.78;;;23.07;81.38
51289;BME280;37372;52.294;5.152;2022-08-18T11:47:26;101501.28;;;23.05;81.00
51289;BME280;37372;52.294;5.152;2022-08-18T11:50:12;101501.41;;;23.11;81.41
51289;BME280;37372;52.294;5.152;2022-08-18T11:52:49;101499.44;;;23.17;81.35
51289;BME280;37372;52.294;5.152;2022-08-18T11:55:28;101495.75;;;23.26;80.76
51289;BME280;37372;52.294;5.152;2022-08-18T11:57:55;101500.59;;;23.34;80.98
51289;BME280;37372;52.294;5.152;2022-08-18T12:05:41;101491.22;;;23.34;79.26
51289;BME280;37372;52.294;5.152;2022-08-18T12:08:48;101486.97;;;23.29;79.40
51289;BME280;37372;52.294;5.152;2022-08-18T12:11:17;101477.22;;;23.36;80.69
51289;BME280;37372;52.294;5.152;2022-08-18T12:13:46;101473.63;;;23.26;80.59
51289;BME280;37372;52.294;5.152;2022-08-18T12:16:29;101482.53;;;23.28;81.51
51289;BME280;37372;52.294;5.152;2022-08-18T12:18:57;101470.09;;;23.31;81.79
51289;BME280;37372;52.294;5.152;2022-08-18T12:21:22;101475.97;;;23.28;79.89
51289;BME280;37372;52.294;5.152;2022-08-18T12:23:48;101476.50;;;23.26;79.97
51289;BME280;37372;52.294;5.152;2022-08-18T12:26:13;101466.03;;;23.23;80.90
51289;BME280;37372;52.294;5.152;2022-08-18T12:28:39;101461.78;;;23.18;81.44
51289;BME280;37372;52.294;5.152;2022-08-18T12:31:06;101465.31;;;23.13;81.78
51289;BME280;37372;52.294;5.152;2022-08-18T12:33:33;101455.31;;;23.09;81.73
51289;BME280;37372;52.294;5.152;2022-08-18T12:35:58;101462.34;;;23.08;82.17
51289;BME280;37372;52.294;5.152;2022-08-18T12:38:24;101470.59;;;23.06;82.80
51289;BME280;37372;52.294;5.152;2022-08-18T12:40:50;101469.00;;;23.05;81.96
51289;BME280;37372;52.294;5.152;2022-08-18T12:43:15;101473.88;;;23.13;82.75
51289;BME280;37372;52.294;5.152;2022-08-18T12:45:41;101470.03;;;23.16;81.09
51289;BME280;37372;52.294;5.152;2022-08-18T12:48:07;101467.91;;;23.26;78.72
51289;BME280;37372;52.294;5.152;2022-08-18T12:50:34;101460.72;;;23.31;77.16
51289;BME280;37372;52.294;5.152;2022-08-18T12:53:01;101470.66;;;23.35;76.89
51289;BME280;37372;52.294;5.152;2022-08-18T12:55:34;101458.25;;;23.38;76.05
51289;BME280;37372;52.294;5.152;2022-08-18T12:58:00;101461.22;;;23.44;76.03
51289;BME280;37372;52.294;5.152;2022-08-18T13:00:25;101460.03;;;23.51;76.06
51289;BME280;37372;52.294;5.152;2022-08-18T13:02:51;101462.91;;;23.51;75.26
51289;BME280;37372;52.294;5.152;2022-08-18T13:05:16;101462.63;;;23.49;74.54
51289;BME280;37372;52.294;5.152;2022-08-18T13:07:43;101472.59;;;23.53;74.14
51289;BME280;37372;52.294;5.152;2022-08-18T13:10:09;101475.06;;;23.60;72.86
51289;BME280;37372;52.294;5.152;2022-08-18T13:12:34;101477.75;;;23.64;72.55
51289;BME280;37372;52.294;5.152;2022-08-18T13:15:00;101478.97;;;23.72;72.11
51289;BME280;37372;52.294;5.152;2022-08-18T13:17:25;101468.31;;;23.88;71.65
51289;BME280;37372;52.294;5.152;2022-08-18T13:19:51;101469.00;;;23.97;71.48
51289;BME280;37372;52.294;5.152;2022-08-18T13:22:16;101469.00;;;23.97;71.13
51289;BME280;37372;52.294;5.152;2022-08-18T13:24:42;101459.88;;;23.99;71.02
51289;BME280;37372;52.294;5.152;2022-08-18T13:27:07;101461.34;;;24.09;71.22
51289;BME280;37372;52.294;5.152;2022-08-18T13:29:33;101469.56;;;24.16;71.50
51289;BME280;37372;52.294;5.152;2022-08-18T13:31:58;101463.44;;;24.23;71.35
51289;BME280;37372;52.294;5.152;2022-08-18T13:34:27;101474.28;;;24.19;70.20
51289;BME280;37372;52.294;5.152;2022-08-18T13:36:53;101479.06;;;24.22;70.52
51289;BME280;37372;52.294;5.152;2022-08-18T13:39:21;101482.91;;;24.19;71.07
51289;BME280;37372;52.294;5.152;2022-08-18T13:41:49;101485.97;;;24.16;72.54
51289;BME280;37372;52.294;5.152;2022-08-18T13:44:17;101494.78;;;24.12;72.78
51289;BME280;37372;52.294;5.152;2022-08-18T13:46:44;101491.91;;;24.12;73.50
51289;BME280;37372;52.294;5.152;2022-08-18T13:49:17;101494.09;;;24.02;73.02
51289;BME280;37372;52.294;5.152;2022-08-18T13:51:44;101499.03;;;24.02;73.00
51289;BME280;37372;52.294;5.152;2022-08-18T13:54:23;101495.88;;;24.00;72.89
51289;BME280;37372;52.294;5.152;2022-08-18T13:56:49;101495.88;;;24.00;72.86
51289;BME280;37372;52.294;5.152;2022-08-18T13:59:15;101504.16;;;23.98;72.76
51289;BME280;37372;52.294;5.152;2022-08-18T14:01:41;101495.34;;;24.01;73.64
51289;BME280;37372;52.294;5.152;2022-08-18T14:04:06;101489.94;;;24.03;73.69
51289;BME280;37372;52.294;5.152;2022-08-18T14:06:32;101495.66;;;24.03;73.12
51289;BME280;37372;52.294;5.152;2022-08-18T14:08:57;101498.13;;;24.11;72.83
51289;BME280;37372;52.294;5.152;2022-08-18T14:11:26;101499.22;;;24.13;73.11
51289;BME280;37372;52.294;5.152;2022-08-18T14:13:53;101498.81;;;24.20;73.19
51289;BME280;37372;52.294;5.152;2022-08-18T14:16:19;101498.91;;;24.26;73.39
51289;BME280;37372;52.294;5.152;2022-08-18T14:18:48;101492.88;;;24.24;73.29
51289;BME280;37372;52.294;5.152;2022-08-18T14:21:33;101490.31;;;24.26;73.05
51289;BME280;37372;52.294;5.152;2022-08-18T14:24:17;101486.06;;;24.21;72.03
51289;BME280;37372;52.294;5.152;2022-08-18T14:27:06;101476.75;;;24.26;71.69
51289;BME280;37372;52.294;5.152;2022-08-18T14:29:31;101483.50;;;24.23;72.04
51289;BME280;37372;52.294;5.152;2022-08-18T14:31:56;101490.72;;;24.19;72.10
51289;BME280;37372;52.294;5.152;2022-08-18T14:34:22;101483.97;;;24.22;71.86
51289;BME280;37372;52.294;5.152;2022-08-18T14:36:47;101478.06;;;24.25;72.28
51289;BME280;37372;52.294;5.152;2022-08-18T14:39:12;101476.06;;;24.32;71.84
51289;BME280;37372;52.294;5.152;2022-08-18T14:41:39;101488.13;;;24.36;72.01
51289;BME280;37372;52.294;5.152;2022-08-18T14:44:04;101489.50;;;24.40;71.85
51289;BME280;37372;52.294;5.152;2022-08-18T14:46:30;101483.41;;;24.47;72.28
51289;BME280;37372;52.294;5.152;2022-08-18T14:48:55;101486.75;;;24.46;71.02
51289;BME280;37372;52.294;5.152;2022-08-18T14:51:21;101482.59;;;24.47;70.97
51289;BME280;37372;52.294;5.152;2022-08-18T14:53:46;101481.19;;;24.42;70.11
51289;BME280;37372;52.294;5.152;2022-08-18T14:56:12;101475.88;;;24.35;70.20
51289;BME280;37372;52.294;5.152;2022-08-18T14:58:37;101472.31;;;24.25;71.05
51289;BME280;37372;52.294;5.152;2022-08-18T15:01:07;101470.84;;;24.15;70.42
51289;BME280;37372;52.294;5.152;2022-08-18T15:03:35;101474.41;;;24.10;71.06